createdAt,value
2023-01-20T00:00:58.809Z,0
2023-01-20T00:01:58.803Z,0
2023-01-20T00:02:58.798Z,0
2023-01-20T00:03:58.787Z,0
2023-01-20T00:04:58.774Z,0
2023-01-20T00:05:58.761Z,0
2023-01-20T00:06:58.746Z,0
2023-01-20T00:07:58.754Z,0
2023-01-20T00:08:58.730Z,0
2023-01-20T00:09:58.718Z,0
2023-01-20T00:10:58.706Z,0
2023-01-20T00:11:58.695Z,0
2023-01-20T00:12:58.685Z,0
2023-01-20T00:13:58.672Z,0
2023-01-20T00:14:58.683Z,0
2023-01-20T00:15:58.653Z,0
2023-01-20T00:16:58.648Z,0
2023-01-20T00:17:58.631Z,0
2023-01-20T00:18:58.620Z,0
2023-01-20T00:19:58.612Z,0
2023-01-20T00:20:58.609Z,0
2023-01-20T00:21:58.590Z,0
2023-01-20T00:22:58.582Z,0
2023-01-20T00:23:58.579Z,0
2023-01-20T00:24:58.560Z,0
2023-01-20T00:25:58.554Z,0
2023-01-20T00:26:58.552Z,0
2023-01-20T00:27:58.531Z,0
2023-01-20T00:28:58.515Z,0
2023-01-20T00:29:58.510Z,0
2023-01-20T00:30:58.495Z,0
2023-01-20T00:31:58.490Z,0
2023-01-20T00:32:58.500Z,0
2023-01-20T00:33:58.466Z,0
2023-01-20T00:34:58.455Z,0
2023-01-20T00:35:58.446Z,0
2023-01-20T00:36:58.436Z,0
2023-01-20T00:37:58.437Z,0
2023-01-20T00:38:58.428Z,0
2023-01-20T00:39:58.405Z,0
2023-01-20T00:40:58.390Z,0
2023-01-20T00:41:58.381Z,0
2023-01-20T00:42:58.370Z,0
2023-01-20T00:43:58.370Z,0
2023-01-20T00:44:58.374Z,0
2023-01-20T00:45:58.338Z,0
2023-01-20T00:46:58.328Z,0
2023-01-20T00:47:58.322Z,0
2023-01-20T00:48:58.315Z,0
2023-01-20T00:49:58.301Z,0
2023-01-20T00:50:58.309Z,0
2023-01-20T00:51:58.281Z,0
2023-01-20T00:52:58.274Z,0
2023-01-20T00:53:58.260Z,0
2023-01-20T00:54:58.251Z,0
2023-01-20T00:55:58.242Z,0
2023-01-20T00:56:58.243Z,0
2023-01-20T00:57:58.221Z,0
2023-01-20T00:58:58.210Z,0
2023-01-20T00:59:58.197Z,0
2023-01-20T01:00:58.194Z,0
2023-01-20T01:01:58.175Z,0
2023-01-20T01:02:58.185Z,0
2023-01-20T01:03:58.155Z,0
2023-01-20T01:04:58.149Z,0
2023-01-20T01:05:58.138Z,0
2023-01-20T01:06:58.131Z,0
2023-01-20T01:07:58.115Z,0
2023-01-20T01:08:58.105Z,0
2023-01-20T01:09:58.114Z,0
2023-01-20T01:10:58.084Z,0
2023-01-20T01:11:58.077Z,0
2023-01-20T01:12:58.064Z,0
2023-01-20T01:13:58.058Z,0
2023-01-20T01:14:58.052Z,0
2023-01-20T01:15:58.029Z,0
2023-01-20T01:16:58.043Z,0
2023-01-20T01:17:58.015Z,0
2023-01-20T01:18:58.009Z,0
2023-01-20T01:19:58.000Z,0
2023-01-20T01:20:57.979Z,0
2023-01-20T01:21:57.967Z,0
2023-01-20T01:22:57.965Z,0
2023-01-20T01:23:57.953Z,0
2023-01-20T01:24:57.950Z,0
2023-01-20T01:25:57.927Z,0
2023-01-20T01:26:57.917Z,0
2023-01-20T01:27:57.907Z,0
2023-01-20T01:28:57.895Z,0
2023-01-20T01:29:57.893Z,0
2023-01-20T01:30:57.882Z,0
2023-01-20T01:31:57.869Z,0
2023-01-20T01:32:57.856Z,0
2023-01-20T01:33:57.842Z,0
2023-01-20T01:34:57.831Z,0
2023-01-20T01:35:57.831Z,0
2023-01-20T01:36:57.816Z,0
2023-01-20T01:37:57.803Z,0
2023-01-20T01:38:57.792Z,0
2023-01-20T01:39:57.779Z,0
2023-01-20T01:40:57.769Z,0
2023-01-20T01:41:57.767Z,0
2023-01-20T01:42:57.750Z,0
2023-01-20T01:43:57.745Z,0
2023-01-20T01:44:57.732Z,0
2023-01-20T01:45:57.723Z,0
2023-01-20T01:46:57.711Z,0
2023-01-20T01:47:57.702Z,0
2023-01-20T01:48:57.689Z,0
2023-01-20T01:49:57.677Z,0
2023-01-20T01:50:57.668Z,0
2023-01-20T01:51:57.654Z,0
2023-01-20T01:52:57.653Z,0
2023-01-20T01:53:57.640Z,0
2023-01-20T01:54:57.626Z,0
2023-01-20T01:55:57.623Z,0
2023-01-20T01:56:57.606Z,0
2023-01-20T01:57:57.597Z,0
2023-01-20T01:58:57.583Z,0
2023-01-20T01:59:57.572Z,0
2023-01-20T02:00:57.580Z,0
2023-01-20T02:01:57.554Z,0
2023-01-20T02:02:57.541Z,0
2023-01-20T02:03:57.532Z,0
2023-01-20T02:04:57.521Z,0
2023-01-20T02:05:57.516Z,0
2023-01-20T02:06:57.502Z,0
2023-01-20T02:07:57.496Z,0
2023-01-20T02:08:57.480Z,0
2023-01-20T02:09:57.466Z,0
2023-01-20T02:10:57.457Z,0
2023-01-20T02:11:57.458Z,0
2023-01-20T02:12:57.450Z,0
2023-01-20T02:13:57.427Z,0
2023-01-20T02:14:57.418Z,0
2023-01-20T02:15:57.408Z,0
2023-01-20T02:16:57.399Z,0
2023-01-20T02:17:57.390Z,0
2023-01-20T02:18:57.380Z,0
2023-01-20T02:19:57.370Z,0
2023-01-20T02:20:57.356Z,0
2023-01-20T02:21:57.346Z,0
2023-01-20T02:22:57.338Z,0
2023-01-20T02:23:57.321Z,0
2023-01-20T02:24:57.319Z,0
2023-01-20T02:25:57.305Z,0
2023-01-20T02:26:57.293Z,0
2023-01-20T02:27:57.284Z,0
2023-01-20T02:28:57.270Z,0
2023-01-20T02:29:57.267Z,0
2023-01-20T02:30:57.266Z,0
2023-01-20T02:31:57.243Z,0
2023-01-20T02:32:57.243Z,0
2023-01-20T02:33:57.227Z,0
2023-01-20T02:34:57.223Z,0
2023-01-20T02:35:57.205Z,0
2023-01-20T02:36:57.191Z,0
2023-01-20T02:37:57.182Z,0
2023-01-20T02:38:57.172Z,0
2023-01-20T02:39:57.160Z,0
2023-01-20T02:40:57.151Z,0
2023-01-20T02:41:57.146Z,0
2023-01-20T02:42:57.133Z,0
2023-01-20T02:43:57.119Z,0
2023-01-20T02:44:57.110Z,0
2023-01-20T02:45:57.098Z,0
2023-01-20T02:46:57.094Z,0
2023-01-20T02:47:57.087Z,0
2023-01-20T02:48:57.071Z,0
2023-01-20T02:49:57.062Z,0
2023-01-20T02:50:57.049Z,0
2023-01-20T02:51:57.034Z,0
2023-01-20T02:52:57.033Z,0
2023-01-20T02:53:57.019Z,0
2023-01-20T02:54:57.021Z,0
2023-01-20T02:55:56.995Z,0
2023-01-20T02:56:56.988Z,0
2023-01-20T02:57:56.981Z,0
2023-01-20T02:58:56.966Z,0
2023-01-20T02:59:56.955Z,0
2023-01-20T03:00:56.950Z,0
2023-01-20T03:01:56.937Z,0
2023-01-20T03:02:56.925Z,0
2023-01-20T03:03:56.918Z,0
2023-01-20T03:04:56.914Z,0
2023-01-20T03:05:56.895Z,0
2023-01-20T03:06:56.891Z,0
2023-01-20T03:07:56.877Z,0
2023-01-20T03:08:56.870Z,0
2023-01-20T03:09:56.856Z,0
2023-01-20T03:10:56.850Z,0
2023-01-20T03:11:56.837Z,0
2023-01-20T03:12:56.832Z,0
2023-01-20T03:13:56.818Z,0
2023-01-20T03:14:56.807Z,0
2023-01-20T03:15:56.794Z,0
2023-01-20T03:16:56.786Z,0
2023-01-20T03:17:56.777Z,0
2023-01-20T03:18:56.787Z,0
2023-01-20T03:19:56.752Z,0
2023-01-20T03:20:56.742Z,0
2023-01-20T03:21:56.735Z,0
2023-01-20T03:22:56.724Z,0
2023-01-20T03:23:56.716Z,0
2023-01-20T03:24:56.706Z,0
2023-01-20T03:25:56.704Z,0
2023-01-20T03:26:56.680Z,0
2023-01-20T03:27:56.689Z,0
2023-01-20T03:28:56.665Z,0
2023-01-20T03:29:56.654Z,0
2023-01-20T03:30:56.643Z,0
2023-01-20T03:31:56.634Z,0
2023-01-20T03:32:56.625Z,0
2023-01-20T03:33:56.608Z,0
2023-01-20T03:34:56.604Z,0
2023-01-20T03:35:56.662Z,0
2023-01-20T03:36:56.581Z,0
2023-01-20T03:37:56.573Z,0
2023-01-20T03:38:56.561Z,0
2023-01-20T03:39:56.551Z,0
2023-01-20T03:40:56.541Z,0
2023-01-20T03:41:56.534Z,0
2023-01-20T03:42:56.520Z,0
2023-01-20T03:43:56.518Z,0
2023-01-20T03:44:56.497Z,0
2023-01-20T03:45:56.490Z,0
2023-01-20T03:46:56.485Z,0
2023-01-20T03:47:56.474Z,0
2023-01-20T03:49:04.148Z,0
2023-01-20T03:49:56.459Z,0
2023-01-20T03:50:56.439Z,0
2023-01-20T03:51:56.440Z,0
2023-01-20T03:52:56.444Z,0
2023-01-20T03:53:56.422Z,0
2023-01-20T03:54:56.409Z,0
2023-01-20T03:55:56.427Z,0
2023-01-20T03:56:56.472Z,0
2023-01-20T03:57:57.413Z,0
2023-01-20T03:59:04.051Z,0
2023-01-20T03:59:56.376Z,0
2023-01-20T04:00:56.346Z,0
2023-01-20T04:01:56.331Z,0
2023-01-20T04:02:56.315Z,0
2023-01-20T04:03:56.315Z,0
2023-01-20T04:04:56.313Z,0
2023-01-20T04:05:56.318Z,0
2023-01-20T04:06:56.308Z,0
2023-01-20T04:07:56.264Z,0
2023-01-20T04:08:56.251Z,0
2023-01-20T04:09:56.246Z,0
2023-01-20T04:10:56.253Z,0
2023-01-20T04:11:56.252Z,0
2023-01-20T04:13:03.801Z,0
2023-01-20T04:13:56.213Z,0
2023-01-20T04:14:56.189Z,0
2023-01-20T04:15:56.195Z,0
2023-01-20T04:16:56.181Z,0
2023-01-20T04:17:56.162Z,0
2023-01-20T04:18:56.163Z,0
2023-01-20T04:19:56.156Z,0
2023-01-20T04:20:56.125Z,0
2023-01-20T04:21:56.123Z,0
2023-01-20T04:22:56.106Z,0
2023-01-20T04:23:56.114Z,0
2023-01-20T04:24:56.104Z,0
2023-01-20T04:25:56.094Z,0
2023-01-20T04:26:56.063Z,0
2023-01-20T04:27:56.061Z,0
2023-01-20T04:28:56.094Z,0
2023-01-20T04:29:56.058Z,0
2023-01-20T04:30:56.033Z,0
2023-01-20T04:31:56.014Z,0
2023-01-20T04:32:56.000Z,0
2023-01-20T04:33:55.994Z,0
2023-01-20T04:34:56.050Z,0
2023-01-20T04:35:55.983Z,0
2023-01-20T04:36:56.001Z,0
2023-01-20T04:37:55.951Z,0
2023-01-20T04:38:55.946Z,0
2023-01-20T04:39:55.951Z,0
2023-01-20T04:40:55.922Z,0
2023-01-20T04:41:55.937Z,0
2023-01-20T04:42:55.903Z,0
2023-01-20T04:43:55.885Z,0
2023-01-20T04:44:55.913Z,0
2023-01-20T04:45:55.893Z,0
2023-01-20T04:46:55.873Z,0
2023-01-20T04:47:55.867Z,0
2023-01-20T04:48:55.843Z,0
2023-01-20T04:49:55.840Z,0
2023-01-20T04:50:55.827Z,0
2023-01-20T04:51:55.806Z,0
2023-01-20T04:52:55.796Z,0
2023-01-20T04:53:55.783Z,0
2023-01-20T04:54:55.784Z,0
2023-01-20T04:55:55.791Z,0
2023-01-20T04:56:55.753Z,0
2023-01-20T04:57:55.743Z,0
2023-01-20T04:58:55.742Z,0
2023-01-20T04:59:55.748Z,0
2023-01-20T05:00:55.723Z,0
2023-01-20T05:01:55.700Z,0
2023-01-20T05:02:55.692Z,0
2023-01-20T05:03:55.681Z,0
2023-01-20T05:04:55.676Z,0
2023-01-20T05:05:55.661Z,0
2023-01-20T05:06:55.690Z,0
2023-01-20T05:07:55.636Z,0
2023-01-20T05:08:55.626Z,0
2023-01-20T05:09:55.629Z,0
2023-01-20T05:10:55.633Z,0
2023-01-20T05:11:55.631Z,0
2023-01-20T05:12:55.660Z,0
2023-01-20T05:13:55.581Z,0
2023-01-20T05:14:55.573Z,0
2023-01-20T05:15:55.553Z,0
2023-01-20T05:16:55.547Z,0
2023-01-20T05:17:55.545Z,0
2023-01-20T05:18:55.522Z,0
2023-01-20T05:19:55.513Z,0
2023-01-20T05:20:55.506Z,0
2023-01-20T05:21:55.495Z,0
2023-01-20T05:22:55.483Z,0
2023-01-20T05:23:55.481Z,0
2023-01-20T05:24:55.463Z,0
2023-01-20T05:25:55.474Z,0
2023-01-20T05:26:55.463Z,0
2023-01-20T05:27:55.434Z,0
2023-01-20T05:28:55.439Z,0
2023-01-20T05:29:55.449Z,0
2023-01-20T05:30:55.432Z,0
2023-01-20T05:31:55.388Z,0
2023-01-20T05:32:55.393Z,0
2023-01-20T05:33:55.372Z,0
2023-01-20T05:34:55.367Z,0
2023-01-20T05:35:55.359Z,0
2023-01-20T05:36:55.343Z,0
2023-01-20T05:37:55.333Z,0
2023-01-20T05:38:55.341Z,0
2023-01-20T05:39:55.308Z,0
2023-01-20T05:40:55.299Z,0
2023-01-20T05:41:55.301Z,0
2023-01-20T05:42:55.290Z,0
2023-01-20T05:43:55.270Z,0
2023-01-20T05:44:55.275Z,0
2023-01-20T05:45:55.244Z,0
2023-01-20T05:46:55.263Z,0
2023-01-20T05:47:55.246Z,0
2023-01-20T05:48:55.250Z,0
2023-01-20T05:49:55.212Z,0
2023-01-20T05:50:55.197Z,0
2023-01-20T05:51:55.193Z,0
2023-01-20T05:52:55.188Z,0
2023-01-20T05:53:55.187Z,0
2023-01-20T05:54:55.179Z,0
2023-01-20T05:55:55.152Z,0
2023-01-20T05:56:55.133Z,0
2023-01-20T05:57:55.127Z,0
2023-01-20T05:58:55.127Z,0
2023-01-20T05:59:55.111Z,0
2023-01-20T06:00:55.122Z,0
2023-01-20T06:01:55.087Z,0
2023-01-20T06:04:12.477Z,0
2023-01-20T06:05:12.390Z,0
2023-01-20T06:06:12.372Z,0
2023-01-20T06:07:12.360Z,0
2023-01-20T06:08:12.365Z,0
2023-01-20T06:09:12.343Z,0
2023-01-20T06:10:12.332Z,0
2023-01-20T06:11:12.353Z,0
2023-01-20T06:12:12.333Z,0
2023-01-20T06:13:12.332Z,0
2023-01-20T06:14:12.372Z,0
2023-01-20T06:15:12.366Z,0
2023-01-20T06:16:12.285Z,0
2023-01-20T06:17:12.267Z,0
2023-01-20T06:18:19.932Z,0
2023-01-20T06:19:12.251Z,0
2023-01-20T06:20:12.236Z,0
2023-01-20T06:21:12.227Z,0
2023-01-20T06:22:12.206Z,0
2023-01-20T06:23:12.203Z,0
2023-01-20T06:24:12.183Z,0
2023-01-20T06:25:12.176Z,0
2023-01-20T06:26:12.168Z,0
2023-01-20T06:27:12.162Z,0
2023-01-20T06:28:12.150Z,0
2023-01-20T06:29:12.147Z,0
2023-01-20T06:30:12.124Z,0
2023-01-20T06:31:12.139Z,0
2023-01-20T06:32:12.112Z,0
2023-01-20T06:33:12.091Z,0
2023-01-20T06:34:12.082Z,0
2023-01-20T06:35:12.073Z,0
2023-01-20T06:36:12.063Z,0
2023-01-20T06:37:12.055Z,0
2023-01-20T06:38:12.056Z,0
2023-01-20T06:39:12.038Z,0
2023-01-20T06:40:12.065Z,0
2023-01-20T06:41:12.018Z,0
2023-01-20T06:42:12.008Z,0
2023-01-20T06:43:11.994Z,0
2023-01-20T06:44:11.995Z,0
2023-01-20T06:45:11.974Z,0
2023-01-20T06:46:11.958Z,0
2023-01-20T06:47:11.949Z,0
2023-01-20T06:48:11.941Z,0
2023-01-20T06:49:11.962Z,0
2023-01-20T06:50:11.920Z,0
2023-01-20T06:51:11.904Z,0
2023-01-20T06:52:11.908Z,0
2023-01-20T06:53:11.901Z,0
2023-01-20T06:54:11.909Z,0
2023-01-20T06:55:11.866Z,0
2023-01-20T06:56:11.870Z,0
2023-01-20T06:57:11.858Z,0
2023-01-20T06:58:11.833Z,0
2023-01-20T06:59:11.826Z,0
2023-01-20T07:00:12.487Z,0
2023-01-20T07:01:11.824Z,0
2023-01-20T07:02:11.799Z,0
2023-01-20T07:03:11.781Z,0
2023-01-20T07:04:11.785Z,0
2023-01-20T07:05:11.763Z,0
2023-01-20T07:06:11.765Z,0
2023-01-20T07:07:11.739Z,0
2023-01-20T07:08:11.740Z,0
2023-01-20T07:09:11.720Z,0
2023-01-20T07:10:11.726Z,0
2023-01-20T07:11:11.726Z,0
2023-01-20T07:12:11.722Z,0
2023-01-20T07:13:11.677Z,0
2023-01-20T07:14:11.677Z,0
2023-01-20T07:15:11.658Z,0
2023-01-20T07:16:11.681Z,0
2023-01-20T07:17:11.652Z,0
2023-01-20T07:18:11.645Z,0
2023-01-20T07:19:11.620Z,0
2023-01-20T07:20:11.635Z,0
2023-01-20T07:21:11.597Z,0
2023-01-20T07:22:11.585Z,0
2023-01-20T07:23:11.582Z,0
2023-01-20T07:24:11.563Z,0
2023-01-20T07:25:11.586Z,0
2023-01-20T07:26:11.543Z,0
2023-01-20T07:27:11.534Z,0
2023-01-20T07:28:11.525Z,0
2023-01-20T07:29:11.529Z,0
2023-01-20T07:30:11.504Z,0
2023-01-20T07:31:11.497Z,0
2023-01-20T07:32:11.492Z,0
2023-01-20T07:33:11.470Z,0
2023-01-20T07:34:11.484Z,0
2023-01-20T07:35:11.456Z,0
2023-01-20T07:36:11.454Z,0
2023-01-20T07:37:12.454Z,0
2023-01-20T07:38:11.439Z,0
2023-01-20T07:39:11.418Z,0
2023-01-20T07:40:11.408Z,0
2023-01-20T07:41:11.402Z,0
2023-01-20T07:42:11.396Z,0
2023-01-20T07:43:11.372Z,0
2023-01-20T07:44:11.416Z,0
2023-01-20T07:45:11.359Z,0
2023-01-20T07:46:11.341Z,0
2023-01-20T07:47:11.337Z,0
2023-01-20T07:48:11.334Z,0
2023-01-20T07:49:11.325Z,0
2023-01-20T07:50:11.307Z,0
2023-01-20T07:51:11.305Z,0
2023-01-20T07:52:11.289Z,5.62
2023-01-20T07:53:11.274Z,5.62
2023-01-20T07:54:11.279Z,5.62
2023-01-20T07:55:11.248Z,5.62
2023-01-20T07:56:11.249Z,5.62
2023-01-20T07:57:11.241Z,5.62
2023-01-20T07:58:11.233Z,5.62
2023-01-20T07:59:11.212Z,5.62
2023-01-20T08:00:11.196Z,5.62
2023-01-20T08:01:11.186Z,5.62
2023-01-20T08:02:11.193Z,5.62
2023-01-20T08:03:11.184Z,5.62
2023-01-20T08:04:11.163Z,5.62
2023-01-20T08:05:11.193Z,5.62
2023-01-20T08:06:11.135Z,5.62
2023-01-20T08:07:11.155Z,5.62
2023-01-20T08:08:11.118Z,5.62
2023-01-20T08:09:11.110Z,5.62
2023-01-20T08:10:11.090Z,5.62
2023-01-20T08:11:11.083Z,11.25
2023-01-20T08:12:11.108Z,11.25
2023-01-20T08:13:11.062Z,11.25
2023-01-20T08:14:11.053Z,11.25
2023-01-20T08:15:11.048Z,11.25
2023-01-20T08:16:11.034Z,16.88
2023-01-20T08:17:11.021Z,16.88
2023-01-20T08:18:11.009Z,16.88
2023-01-20T08:19:11.000Z,16.88
2023-01-20T08:20:10.992Z,16.88
2023-01-20T08:21:10.990Z,16.88
2023-01-20T08:22:10.989Z,16.88
2023-01-20T08:23:10.963Z,16.88
2023-01-20T08:24:10.953Z,22.5
2023-01-20T08:25:10.939Z,22.5
2023-01-20T08:26:10.938Z,22.5
2023-01-20T08:27:10.944Z,22.5
2023-01-20T08:28:10.921Z,22.5
2023-01-20T08:29:10.906Z,22.5
2023-01-20T08:30:10.897Z,22.5
2023-01-20T08:31:10.882Z,22.5
2023-01-20T08:32:10.917Z,22.5
2023-01-20T08:33:10.878Z,28.12
2023-01-20T08:34:10.871Z,28.12
2023-01-20T08:35:10.881Z,28.12
2023-01-20T08:36:10.848Z,28.12
2023-01-20T08:37:10.816Z,28.12
2023-01-20T08:38:10.807Z,28.12
2023-01-20T08:39:10.798Z,28.12
2023-01-20T08:40:10.786Z,22.5
2023-01-20T08:41:10.786Z,22.5
2023-01-20T08:42:10.790Z,22.5
2023-01-20T08:43:10.761Z,22.5
2023-01-20T08:44:10.752Z,22.5
2023-01-20T08:45:10.742Z,22.5
2023-01-20T08:46:10.733Z,22.5
2023-01-20T08:47:10.717Z,22.5
2023-01-20T08:48:10.715Z,22.5
2023-01-20T08:49:10.693Z,22.5
2023-01-20T08:50:10.696Z,22.5
2023-01-20T08:51:10.678Z,22.5
2023-01-20T08:52:10.666Z,28.12
2023-01-20T08:53:10.737Z,28.12
2023-01-20T08:54:10.662Z,28.12
2023-01-20T08:55:10.634Z,28.12
2023-01-20T08:56:10.627Z,28.12
2023-01-20T08:57:10.621Z,28.12
2023-01-20T08:58:10.605Z,28.12
2023-01-20T08:59:10.598Z,22.5
2023-01-20T09:00:10.583Z,22.5
2023-01-20T09:01:10.576Z,22.5
2023-01-20T09:02:10.565Z,22.5
2023-01-20T09:03:10.586Z,22.5
2023-01-20T09:04:10.547Z,22.5
2023-01-20T09:05:10.541Z,22.5
2023-01-20T09:06:10.545Z,28.12
2023-01-20T09:07:10.582Z,28.12
2023-01-20T09:08:10.537Z,28.12
2023-01-20T09:09:10.500Z,28.12
2023-01-20T09:10:10.631Z,33.75
2023-01-20T09:11:10.478Z,33.75
2023-01-20T09:12:10.462Z,39.38
2023-01-20T09:13:10.501Z,45
2023-01-20T09:14:11.451Z,45
2023-01-20T09:15:10.432Z,45
2023-01-20T09:16:10.437Z,45
2023-01-20T09:17:10.411Z,45
2023-01-20T09:18:10.450Z,45
2023-01-20T09:19:10.433Z,50.62
2023-01-20T09:20:10.384Z,50.62
2023-01-20T09:21:10.428Z,56.25
2023-01-20T09:22:10.359Z,56.25
2023-01-20T09:23:10.410Z,56.25
2023-01-20T09:24:10.402Z,56.25
2023-01-20T09:25:10.346Z,50.62
2023-01-20T09:26:10.334Z,50.62
2023-01-20T09:27:10.313Z,45
2023-01-20T09:28:10.302Z,45
2023-01-20T09:29:10.308Z,45
2023-01-20T09:30:10.295Z,45
2023-01-20T09:31:10.297Z,45
2023-01-20T09:32:10.296Z,45
2023-01-20T09:33:10.274Z,50.62
2023-01-20T09:34:10.257Z,50.62
2023-01-20T09:35:10.279Z,50.62
2023-01-20T09:36:10.223Z,50.62
2023-01-20T09:37:10.212Z,56.25
2023-01-20T09:38:10.204Z,61.88
2023-01-20T09:39:10.195Z,67.5
2023-01-20T09:40:10.197Z,67.5
2023-01-20T09:41:10.183Z,67.5
2023-01-20T09:42:10.169Z,67.5
2023-01-20T09:43:10.167Z,67.5
2023-01-20T09:44:10.139Z,67.5
2023-01-20T09:45:10.233Z,67.5
2023-01-20T09:46:10.164Z,73.12
2023-01-20T09:47:10.111Z,73.12
2023-01-20T09:48:10.115Z,78.75
2023-01-20T09:49:10.091Z,84.38
2023-01-20T09:50:10.104Z,90
2023-01-20T09:51:10.070Z,95.62
2023-01-20T09:52:10.066Z,95.62
2023-01-20T09:53:10.057Z,95.62
2023-01-20T09:54:10.058Z,90
2023-01-20T09:55:10.069Z,95.62
2023-01-20T09:56:10.186Z,90
2023-01-20T09:57:10.013Z,90
2023-01-20T09:58:10.132Z,90
2023-01-20T09:59:09.996Z,95.62
2023-01-20T10:00:09.983Z,95.62
2023-01-20T10:01:10.009Z,90
2023-01-20T10:02:09.973Z,90
2023-01-20T10:03:10.000Z,90
2023-01-20T10:04:09.934Z,84.38
2023-01-20T10:05:09.919Z,84.38
2023-01-20T10:06:09.921Z,84.38
2023-01-20T10:07:09.916Z,84.38
2023-01-20T10:08:09.885Z,84.38
2023-01-20T10:09:10.471Z,84.38
2023-01-20T10:10:10.477Z,90
2023-01-20T10:11:09.857Z,90
2023-01-20T10:12:09.848Z,95.62
2023-01-20T10:13:09.887Z,95.62
2023-01-20T10:14:09.858Z,95.62
2023-01-20T10:15:09.816Z,95.62
2023-01-20T10:16:09.812Z,101.25
2023-01-20T10:17:09.799Z,112.5
2023-01-20T10:18:09.804Z,118.12
2023-01-20T10:19:09.771Z,112.5
2023-01-20T10:20:09.761Z,118.12
2023-01-20T10:21:09.775Z,112.5
2023-01-20T10:22:09.744Z,135
2023-01-20T10:23:09.732Z,135
2023-01-20T10:24:09.721Z,151.88
2023-01-20T10:25:09.714Z,163.12
2023-01-20T10:26:09.712Z,140.62
2023-01-20T10:27:09.691Z,157.5
2023-01-20T10:28:09.698Z,151.88
2023-01-20T10:29:09.674Z,135
2023-01-20T10:30:09.661Z,118.12
2023-01-20T10:31:09.654Z,106.88
2023-01-20T10:32:09.647Z,106.88
2023-01-20T10:33:09.628Z,101.25
2023-01-20T10:34:09.622Z,101.25
2023-01-20T10:35:09.606Z,90
2023-01-20T10:36:09.592Z,90
2023-01-20T10:37:09.578Z,84.38
2023-01-20T10:38:09.570Z,78.75
2023-01-20T10:39:09.610Z,73.12
2023-01-20T10:40:09.558Z,73.12
2023-01-20T10:41:09.542Z,73.12
2023-01-20T10:42:09.524Z,73.12
2023-01-20T10:43:09.522Z,78.75
2023-01-20T10:44:09.509Z,90
2023-01-20T10:45:09.505Z,95.62
2023-01-20T10:46:09.489Z,101.25
2023-01-20T10:47:09.478Z,112.5
2023-01-20T10:48:09.482Z,118.12
2023-01-20T10:49:09.456Z,123.75
2023-01-20T10:50:09.462Z,135
2023-01-20T10:51:09.770Z,140.62
2023-01-20T10:52:10.819Z,146.25
2023-01-20T10:53:09.551Z,151.88
2023-01-20T10:54:09.435Z,151.88
2023-01-20T10:55:09.399Z,151.88
2023-01-20T10:56:09.387Z,151.88
2023-01-20T10:57:09.381Z,151.88
2023-01-20T10:58:09.358Z,157.5
2023-01-20T10:59:09.362Z,157.5
2023-01-20T11:00:09.339Z,151.88
2023-01-20T11:01:09.389Z,146.25
2023-01-20T11:02:09.367Z,151.88
2023-01-20T11:03:09.308Z,157.5
2023-01-20T11:04:09.299Z,163.12
2023-01-20T11:05:09.302Z,163.12
2023-01-20T11:06:09.333Z,163.12
2023-01-20T11:07:09.289Z,157.5
2023-01-20T11:08:09.258Z,157.5
2023-01-20T11:09:09.250Z,157.5
2023-01-20T11:10:09.281Z,151.88
2023-01-20T11:11:09.226Z,151.88
2023-01-20T11:12:09.216Z,151.88
2023-01-20T11:13:09.204Z,157.5
2023-01-20T11:14:09.200Z,168.75
2023-01-20T11:15:09.180Z,174.38
2023-01-20T11:16:09.182Z,168.75
2023-01-20T11:17:09.178Z,163.12
2023-01-20T11:18:09.187Z,151.88
2023-01-20T11:19:09.140Z,151.88
2023-01-20T11:20:09.163Z,146.25
2023-01-20T11:21:09.119Z,146.25
2023-01-20T11:22:09.110Z,168.75
2023-01-20T11:23:09.366Z,191.25
2023-01-20T11:24:09.088Z,202.5
2023-01-20T11:25:09.086Z,213.75
2023-01-20T11:26:09.072Z,219.38
2023-01-20T11:27:09.084Z,236.25
2023-01-20T11:28:09.051Z,241.88
2023-01-20T11:29:09.051Z,225
2023-01-20T11:30:09.027Z,230.62
2023-01-20T11:31:09.015Z,213.75
2023-01-20T11:32:09.015Z,213.75
2023-01-20T11:33:08.996Z,213.75
2023-01-20T11:34:08.982Z,219.38
2023-01-20T11:35:08.978Z,225
2023-01-20T11:36:08.966Z,191.25
2023-01-20T11:37:08.979Z,174.38
2023-01-20T11:38:08.953Z,151.88
2023-01-20T11:39:08.973Z,135
2023-01-20T11:40:08.926Z,118.12
2023-01-20T11:41:08.917Z,106.88
2023-01-20T11:42:08.936Z,95.62
2023-01-20T11:43:08.914Z,90
2023-01-20T11:44:08.879Z,84.38
2023-01-20T11:45:08.866Z,84.38
2023-01-20T11:46:08.867Z,84.38
2023-01-20T11:47:08.846Z,84.38
2023-01-20T11:48:08.843Z,78.75
2023-01-20T11:49:08.830Z,78.75
2023-01-20T11:50:08.816Z,84.38
2023-01-20T11:51:08.806Z,95.62
2023-01-20T11:52:08.801Z,112.5
2023-01-20T11:53:08.788Z,101.25
2023-01-20T11:54:08.780Z,101.25
2023-01-20T11:55:08.763Z,101.25
2023-01-20T11:56:08.765Z,90
2023-01-20T11:57:08.747Z,90
2023-01-20T11:58:08.742Z,84.38
2023-01-20T11:59:08.738Z,84.38
2023-01-20T12:00:08.712Z,84.38
2023-01-20T12:01:08.709Z,78.75
2023-01-20T12:02:08.707Z,78.75
2023-01-20T12:03:08.695Z,78.75
2023-01-20T12:04:08.678Z,78.75
2023-01-20T12:05:08.671Z,78.75
2023-01-20T12:06:08.672Z,73.12
2023-01-20T12:07:08.644Z,73.12
2023-01-20T12:08:08.628Z,73.12
2023-01-20T12:09:08.658Z,73.12
2023-01-20T12:10:08.612Z,67.5
2023-01-20T12:11:08.605Z,61.88
2023-01-20T12:12:08.591Z,56.25
2023-01-20T12:13:08.580Z,56.25
2023-01-20T12:14:08.596Z,50.62
2023-01-20T12:15:08.558Z,50.62
2023-01-20T12:16:08.551Z,45
2023-01-20T12:17:08.545Z,45
2023-01-20T12:18:08.552Z,45
2023-01-20T12:19:08.559Z,45
2023-01-20T12:20:08.511Z,39.38
2023-01-20T12:21:08.493Z,39.38
2023-01-20T12:22:08.497Z,39.38
2023-01-20T12:23:08.543Z,39.38
2023-01-20T12:24:08.464Z,39.38
2023-01-20T12:25:08.456Z,39.38
2023-01-20T12:26:08.439Z,39.38
2023-01-20T12:27:08.429Z,39.38
2023-01-20T12:28:08.429Z,39.38
2023-01-20T12:29:08.411Z,39.38
2023-01-20T12:30:08.402Z,39.38
2023-01-20T12:31:08.387Z,39.38
2023-01-20T12:32:08.378Z,45
2023-01-20T12:33:08.377Z,45
2023-01-20T12:34:08.375Z,45
2023-01-20T12:35:08.358Z,45
2023-01-20T12:36:08.344Z,45
2023-01-20T12:37:08.328Z,45
2023-01-20T12:38:08.314Z,45
2023-01-20T12:39:08.304Z,45
2023-01-20T12:40:08.290Z,39.38
2023-01-20T12:41:08.293Z,39.38
2023-01-20T12:42:08.279Z,39.38
2023-01-20T12:43:08.265Z,39.38
2023-01-20T12:44:08.259Z,39.38
2023-01-20T12:45:08.269Z,39.38
2023-01-20T12:46:08.271Z,39.38
2023-01-20T12:47:08.250Z,39.38
2023-01-20T12:48:08.219Z,39.38
2023-01-20T12:49:08.210Z,39.38
2023-01-20T12:50:08.199Z,39.38
2023-01-20T12:51:08.189Z,39.38
2023-01-20T12:52:08.174Z,39.38
2023-01-20T12:53:08.177Z,39.38
2023-01-20T12:54:08.150Z,33.75
2023-01-20T12:55:08.139Z,33.75
2023-01-20T12:56:08.127Z,33.75
2023-01-20T12:57:08.124Z,33.75
2023-01-20T12:58:08.126Z,33.75
2023-01-20T12:59:08.102Z,33.75
2023-01-20T13:00:08.094Z,33.75
2023-01-20T13:01:08.080Z,33.75
2023-01-20T13:02:08.069Z,33.75
2023-01-20T13:03:08.054Z,33.75
2023-01-20T13:04:08.073Z,33.75
2023-01-20T13:05:08.040Z,33.75
2023-01-20T13:06:08.028Z,33.75
2023-01-20T13:07:08.011Z,33.75
2023-01-20T13:08:08.011Z,33.75
2023-01-20T13:09:07.991Z,28.12
2023-01-20T13:10:07.982Z,28.12
2023-01-20T13:11:07.970Z,28.12
2023-01-20T13:12:07.957Z,28.12
2023-01-20T13:13:07.945Z,28.12
2023-01-20T13:14:07.935Z,28.12
2023-01-20T13:15:07.924Z,28.12
2023-01-20T13:16:07.914Z,28.12
2023-01-20T13:17:07.903Z,28.12
2023-01-20T13:18:07.898Z,28.12
2023-01-20T13:19:07.882Z,28.12
2023-01-20T13:20:07.872Z,28.12
2023-01-20T13:21:07.893Z,28.12
2023-01-20T13:22:07.852Z,28.12
2023-01-20T13:23:07.873Z,28.12
2023-01-20T13:24:07.830Z,28.12
2023-01-20T13:25:07.823Z,28.12
2023-01-20T13:26:07.810Z,28.12
2023-01-20T13:27:07.798Z,28.12
2023-01-20T13:28:07.814Z,28.12
2023-01-20T13:29:07.776Z,22.5
2023-01-20T13:30:07.770Z,22.5
2023-01-20T13:31:07.766Z,22.5
2023-01-20T13:32:07.757Z,22.5
2023-01-20T13:33:07.743Z,22.5
2023-01-20T13:34:07.746Z,22.5
2023-01-20T13:35:07.715Z,22.5
2023-01-20T13:36:07.710Z,22.5
2023-01-20T13:37:07.695Z,22.5
2023-01-20T13:38:07.684Z,22.5
2023-01-20T13:39:07.682Z,22.5
2023-01-20T13:40:07.665Z,22.5
2023-01-20T13:41:07.662Z,22.5
2023-01-20T13:42:07.638Z,22.5
2023-01-20T13:43:07.639Z,16.88
2023-01-20T13:44:07.621Z,16.88
2023-01-20T13:45:07.619Z,16.88
2023-01-20T13:46:07.688Z,16.88
2023-01-20T13:47:07.595Z,11.25
2023-01-20T13:48:07.576Z,11.25
2023-01-20T13:49:07.566Z,16.88
2023-01-20T13:50:07.560Z,16.88
2023-01-20T13:51:07.565Z,16.88
2023-01-20T13:52:07.534Z,16.88
2023-01-20T13:53:07.543Z,16.88
2023-01-20T13:54:07.520Z,16.88
2023-01-20T13:55:07.501Z,16.88
2023-01-20T13:56:07.504Z,16.88
2023-01-20T13:57:07.482Z,16.88
2023-01-20T13:58:07.473Z,16.88
2023-01-20T13:59:07.468Z,16.88
2023-01-20T14:00:07.456Z,16.88